Wallingford, Iowa
Current Conditions -  °F | °C
As of 3:52 AM on Monday 22 Dec 2014 (Local Time) from KEST Reporting Station
Haze Haze  
Wind Chill: 28°   Ceiling: 400
Heat Index: 38°   Visibility: 5mi
Dew Point: 38°   Wind: 18mph
Humidity: 100%   Direction: 160°SSE
Pressure: 29.58"   Gusts: NA
Location:  43.32°N, 94.79°W
Report Text: KEST 220952Z AUTO 16016KT 5SM BR OVC004 03/03 A2958 RMK AO2 PK WND 16026/0911 RAE0856 SLP027 P0000 T00330033
Loading
Personal Weather Stations






























Interactive Weather Map New forecast layout! Learn more

10-Day Weather Forecast

Advertisements
Track Severe Weather on mobile